sensor_id;sensor_type;location;lat;lon;timestamp;P1;durP1;ratioP1;P2;durP2;ratioP2
5279;SDS011;2663;53.588;10.010;2023-10-08T00:02:25;13.53;;;6.10;;
5279;SDS011;2663;53.588;10.010;2023-10-08T00:04:52;17.47;;;5.73;;
5279;SDS011;2663;53.588;10.010;2023-10-08T00:07:22;18.77;;;7.07;;
5279;SDS011;2663;53.588;10.010;2023-10-08T00:09:52;22.43;;;7.57;;
5279;SDS011;2663;53.588;10.010;2023-10-08T00:12:19;11.17;;;5.23;;
5279;SDS011;2663;53.588;10.010;2023-10-08T00:14:47;33.40;;;7.63;;
5279;SDS011;2663;53.588;10.010;2023-10-08T00:17:19;28.77;;;6.50;;
5279;SDS011;2663;53.588;10.010;2023-10-08T00:19:47;15.03;;;5.73;;
5279;SDS011;2663;53.588;10.010;2023-10-08T00:22:19;20.27;;;7.07;;
5279;SDS011;2663;53.588;10.010;2023-10-08T00:24:46;17.80;;;6.07;;
5279;SDS011;2663;53.588;10.010;2023-10-08T00:27:15;22.60;;;5.80;;
5279;SDS011;2663;53.588;10.010;2023-10-08T00:29:43;19.33;;;6.00;;
5279;SDS011;2663;53.588;10.010;2023-10-08T00:32:11;15.13;;;6.17;;
5279;SDS011;2663;53.588;10.010;2023-10-08T00:34:39;9.70;;;5.20;;
5279;SDS011;2663;53.588;10.010;2023-10-08T00:37:10;14.30;;;5.10;;
5279;SDS011;2663;53.588;10.010;2023-10-08T00:39:41;16.10;;;4.90;;
5279;SDS011;2663;53.588;10.010;2023-10-08T00:42:08;14.90;;;5.07;;
5279;SDS011;2663;53.588;10.010;2023-10-08T00:44:35;15.20;;;5.30;;
5279;SDS011;2663;53.588;10.010;2023-10-08T00:47:15;15.90;;;4.90;;
5279;SDS011;2663;53.588;10.010;2023-10-08T00:49:43;13.83;;;4.63;;
5279;SDS011;2663;53.588;10.010;2023-10-08T00:52:10;13.37;;;4.50;;
5279;SDS011;2663;53.588;10.010;2023-10-08T00:54:39;13.47;;;4.57;;
5279;SDS011;2663;53.588;10.010;2023-10-08T00:57:26;14.00;;;4.50;;
5279;SDS011;2663;53.588;10.010;2023-10-08T00:59:56;14.17;;;4.90;;
5279;SDS011;2663;53.588;10.010;2023-10-08T01:02:25;13.63;;;4.37;;
5279;SDS011;2663;53.588;10.010;2023-10-08T01:04:55;9.53;;;4.07;;
5279;SDS011;2663;53.588;10.010;2023-10-08T01:07:23;13.67;;;4.10;;
5279;SDS011;2663;53.588;10.010;2023-10-08T01:09:53;14.80;;;3.30;;
5279;SDS011;2663;53.588;10.010;2023-10-08T01:12:26;14.90;;;3.40;;
5279;SDS011;2663;53.588;10.010;2023-10-08T01:15:00;11.93;;;4.07;;
5279;SDS011;2663;53.588;10.010;2023-10-08T01:17:53;19.57;;;3.90;;
5279;SDS011;2663;53.588;10.010;2023-10-08T01:20:27;9.40;;;2.90;;
5279;SDS011;2663;53.588;10.010;2023-10-08T01:23:05;8.50;;;3.10;;
5279;SDS011;2663;53.588;10.010;2023-10-08T01:25:40;9.97;;;2.90;;
5279;SDS011;2663;53.588;10.010;2023-10-08T01:28:08;15.17;;;3.17;;
5279;SDS011;2663;53.588;10.010;2023-10-08T01:30:41;10.27;;;3.07;;
5279;SDS011;2663;53.588;10.010;2023-10-08T01:33:09;15.60;;;3.97;;
5279;SDS011;2663;53.588;10.010;2023-10-08T01:35:38;15.60;;;2.47;;
5279;SDS011;2663;53.588;10.010;2023-10-08T01:38:05;15.23;;;2.80;;
5279;SDS011;2663;53.588;10.010;2023-10-08T01:40:33;10.77;;;3.23;;
5279;SDS011;2663;53.588;10.010;2023-10-08T01:43:00;12.43;;;2.57;;
5279;SDS011;2663;53.588;10.010;2023-10-08T01:45:27;12.10;;;3.67;;
5279;SDS011;2663;53.588;10.010;2023-10-08T01:47:55;12.43;;;2.67;;
5279;SDS011;2663;53.588;10.010;2023-10-08T01:50:23;8.00;;;2.60;;
5279;SDS011;2663;53.588;10.010;2023-10-08T01:52:55;7.90;;;2.80;;
5279;SDS011;2663;53.588;10.010;2023-10-08T01:55:22;12.40;;;3.10;;
5279;SDS011;2663;53.588;10.010;2023-10-08T01:57:49;15.30;;;2.97;;
5279;SDS011;2663;53.588;10.010;2023-10-08T02:00:19;5.00;;;2.10;;
5279;SDS011;2663;53.588;10.010;2023-10-08T02:02:46;15.13;;;2.90;;
5279;SDS011;2663;53.588;10.010;2023-10-08T02:05:14;15.13;;;2.93;;
5279;SDS011;2663;53.588;10.010;2023-10-08T02:07:41;14.83;;;2.83;;
5279;SDS011;2663;53.588;10.010;2023-10-08T02:10:11;13.77;;;2.77;;
5279;SDS011;2663;53.588;10.010;2023-10-08T02:12:40;8.40;;;2.10;;
5279;SDS011;2663;53.588;10.010;2023-10-08T02:15:08;11.13;;;2.30;;
5279;SDS011;2663;53.588;10.010;2023-10-08T02:17:37;12.37;;;2.37;;
5279;SDS011;2663;53.588;10.010;2023-10-08T02:20:05;6.20;;;2.53;;
5279;SDS011;2663;53.588;10.010;2023-10-08T02:22:32;10.70;;;1.93;;
5279;SDS011;2663;53.588;10.010;2023-10-08T02:24:59;14.47;;;3.13;;
5279;SDS011;2663;53.588;10.010;2023-10-08T02:27:29;8.63;;;2.13;;
5279;SDS011;2663;53.588;10.010;2023-10-08T02:29:59;7.97;;;2.30;;
5279;SDS011;2663;53.588;10.010;2023-10-08T02:32:28;13.20;;;2.70;;
5279;SDS011;2663;53.588;10.010;2023-10-08T02:34:56;11.63;;;2.63;;
5279;SDS011;2663;53.588;10.010;2023-10-08T02:37:23;17.67;;;2.60;;
5279;SDS011;2663;53.588;10.010;2023-10-08T02:39:50;17.53;;;4.93;;
5279;SDS011;2663;53.588;10.010;2023-10-08T02:42:17;7.50;;;2.47;;
5279;SDS011;2663;53.588;10.010;2023-10-08T02:44:44;10.40;;;2.57;;
5279;SDS011;2663;53.588;10.010;2023-10-08T02:47:11;10.27;;;2.47;;
5279;SDS011;2663;53.588;10.010;2023-10-08T02:49:38;10.27;;;2.30;;
5279;SDS011;2663;53.588;10.010;2023-10-08T02:52:08;9.43;;;2.30;;
5279;SDS011;2663;53.588;10.010;2023-10-08T02:54:35;7.47;;;1.70;;
5279;SDS011;2663;53.588;10.010;2023-10-08T02:57:02;10.03;;;2.50;;
5279;SDS011;2663;53.588;10.010;2023-10-08T02:59:31;8.90;;;2.10;;
5279;SDS011;2663;53.588;10.010;2023-10-08T03:02:09;10.90;;;2.23;;
5279;SDS011;2663;53.588;10.010;2023-10-08T03:04:46;10.63;;;2.60;;
5279;SDS011;2663;53.588;10.010;2023-10-08T03:07:18;8.57;;;2.37;;
5279;SDS011;2663;53.588;10.010;2023-10-08T03:09:49;3.07;;;1.80;;
5279;SDS011;2663;53.588;10.010;2023-10-08T03:12:17;16.43;;;2.20;;
5279;SDS011;2663;53.588;10.010;2023-10-08T03:14:44;6.83;;;2.13;;
5279;SDS011;2663;53.588;10.010;2023-10-08T03:17:27;10.17;;;1.90;;
5279;SDS011;2663;53.588;10.010;2023-10-08T03:19:56;10.80;;;3.10;;
5279;SDS011;2663;53.588;10.010;2023-10-08T03:22:43;6.50;;;1.40;;
5279;SDS011;2663;53.588;10.010;2023-10-08T03:25:12;10.47;;;2.30;;
5279;SDS011;2663;53.588;10.010;2023-10-08T03:27:43;9.80;;;2.00;;
5279;SDS011;2663;53.588;10.010;2023-10-08T03:30:10;4.33;;;1.80;;
5279;SDS011;2663;53.588;10.010;2023-10-08T03:32:41;12.23;;;2.13;;
5279;SDS011;2663;53.588;10.010;2023-10-08T03:35:10;12.60;;;2.07;;
5279;SDS011;2663;53.588;10.010;2023-10-08T03:37:39;7.50;;;2.33;;
5279;SDS011;2663;53.588;10.010;2023-10-08T03:40:12;8.10;;;1.87;;
5279;SDS011;2663;53.588;10.010;2023-10-08T03:42:51;20.80;;;2.73;;
5279;SDS011;2663;53.588;10.010;2023-10-08T03:45:22;5.50;;;1.67;;
5279;SDS011;2663;53.588;10.010;2023-10-08T03:48:07;21.13;;;2.60;;
5279;SDS011;2663;53.588;10.010;2023-10-08T03:50:41;9.70;;;1.57;;
5279;SDS011;2663;53.588;10.010;2023-10-08T03:53:09;6.30;;;1.70;;
5279;SDS011;2663;53.588;10.010;2023-10-08T03:55:39;4.87;;;2.10;;
5279;SDS011;2663;53.588;10.010;2023-10-08T03:58:09;5.37;;;1.57;;
5279;SDS011;2663;53.588;10.010;2023-10-08T04:00:55;12.17;;;1.53;;
5279;SDS011;2663;53.588;10.010;2023-10-08T04:03:35;8.33;;;1.90;;
5279;SDS011;2663;53.588;10.010;2023-10-08T04:06:20;17.93;;;1.90;;
5279;SDS011;2663;53.588;10.010;2023-10-08T04:08:56;25.73;;;2.40;;
5279;SDS011;2663;53.588;10.010;2023-10-08T04:11:36;2.80;;;1.40;;
5279;SDS011;2663;53.588;10.010;2023-10-08T04:14:21;8.23;;;1.33;;
5279;SDS011;2663;53.588;10.010;2023-10-08T04:16:49;6.40;;;1.40;;
5279;SDS011;2663;53.588;10.010;2023-10-08T04:19:21;8.90;;;1.70;;
5279;SDS011;2663;53.588;10.010;2023-10-08T04:21:53;12.50;;;1.57;;
5279;SDS011;2663;53.588;10.010;2023-10-08T04:24:21;7.23;;;1.53;;
5279;SDS011;2663;53.588;10.010;2023-10-08T04:26:56;9.00;;;1.70;;
5279;SDS011;2663;53.588;10.010;2023-10-08T04:29:24;12.80;;;1.97;;
5279;SDS011;2663;53.588;10.010;2023-10-08T04:31:52;10.57;;;2.97;;
5279;SDS011;2663;53.588;10.010;2023-10-08T04:34:34;6.50;;;1.60;;
5279;SDS011;2663;53.588;10.010;2023-10-08T04:37:01;8.37;;;1.70;;
5279;SDS011;2663;53.588;10.010;2023-10-08T04:39:30;23.33;;;3.27;;
5279;SDS011;2663;53.588;10.010;2023-10-08T04:42:00;8.23;;;1.40;;
5279;SDS011;2663;53.588;10.010;2023-10-08T04:44:37;10.87;;;1.83;;
5279;SDS011;2663;53.588;10.010;2023-10-08T04:47:08;12.07;;;1.83;;
5279;SDS011;2663;53.588;10.010;2023-10-08T04:49:35;7.30;;;1.60;;
5279;SDS011;2663;53.588;10.010;2023-10-08T04:52:11;11.07;;;2.00;;
5279;SDS011;2663;53.588;10.010;2023-10-08T04:54:41;6.10;;;1.43;;
5279;SDS011;2663;53.588;10.010;2023-10-08T04:57:17;6.43;;;1.87;;
5279;SDS011;2663;53.588;10.010;2023-10-08T04:59:48;9.23;;;2.37;;
5279;SDS011;2663;53.588;10.010;2023-10-08T05:02:17;8.80;;;1.67;;
5279;SDS011;2663;53.588;10.010;2023-10-08T05:05:00;7.67;;;1.97;;
5279;SDS011;2663;53.588;10.010;2023-10-08T05:07:35;4.50;;;1.80;;
5279;SDS011;2663;53.588;10.010;2023-10-08T05:10:11;8.17;;;1.70;;
5279;SDS011;2663;53.588;10.010;2023-10-08T05:12:39;5.30;;;1.50;;
5279;SDS011;2663;53.588;10.010;2023-10-08T05:15:24;13.30;;;2.57;;
5279;SDS011;2663;53.588;10.010;2023-10-08T05:17:59;12.80;;;1.53;;
5279;SDS011;2663;53.588;10.010;2023-10-08T05:20:50;13.63;;;1.90;;
5279;SDS011;2663;53.588;10.010;2023-10-08T05:23:18;9.93;;;1.93;;
5279;SDS011;2663;53.588;10.010;2023-10-08T05:25:52;6.40;;;1.70;;
5279;SDS011;2663;53.588;10.010;2023-10-08T05:28:31;6.60;;;1.80;;
5279;SDS011;2663;53.588;10.010;2023-10-08T05:31:08;4.90;;;1.47;;
5279;SDS011;2663;53.588;10.010;2023-10-08T05:33:55;8.77;;;1.93;;
5279;SDS011;2663;53.588;10.010;2023-10-08T05:36:41;6.37;;;1.67;;
5279;SDS011;2663;53.588;10.010;2023-10-08T05:39:37;5.03;;;1.43;;
5279;SDS011;2663;53.588;10.010;2023-10-08T05:42:04;4.10;;;1.37;;
5279;SDS011;2663;53.588;10.010;2023-10-08T05:44:40;7.57;;;1.40;;
5279;SDS011;2663;53.588;10.010;2023-10-08T05:47:15;7.70;;;1.57;;
5279;SDS011;2663;53.588;10.010;2023-10-08T05:50:05;12.90;;;1.67;;
5279;SDS011;2663;53.588;10.010;2023-10-08T05:55:28;4.53;;;1.50;;
5279;SDS011;2663;53.588;10.010;2023-10-08T05:58:02;14.23;;;2.30;;
5279;SDS011;2663;53.588;10.010;2023-10-08T06:00:45;11.80;;;2.00;;
5279;SDS011;2663;53.588;10.010;2023-10-08T06:03:16;5.10;;;1.40;;
5279;SDS011;2663;53.588;10.010;2023-10-08T06:06:00;3.13;;;1.70;;
5279;SDS011;2663;53.588;10.010;2023-10-08T06:08:54;7.40;;;2.43;;
5279;SDS011;2663;53.588;10.010;2023-10-08T06:11:36;5.83;;;2.20;;
5279;SDS011;2663;53.588;10.010;2023-10-08T06:14:11;4.43;;;1.60;;
5279;SDS011;2663;53.588;10.010;2023-10-08T06:16:43;4.63;;;1.47;;
5279;SDS011;2663;53.588;10.010;2023-10-08T06:19:11;21.47;;;3.30;;
5279;SDS011;2663;53.588;10.010;2023-10-08T06:21:39;2.70;;;1.40;;
5279;SDS011;2663;53.588;10.010;2023-10-08T06:24:08;4.50;;;1.30;;
5279;SDS011;2663;53.588;10.010;2023-10-08T06:26:38;6.17;;;1.57;;
5279;SDS011;2663;53.588;10.010;2023-10-08T06:29:12;12.03;;;1.73;;
5279;SDS011;2663;53.588;10.010;2023-10-08T06:31:45;8.80;;;1.93;;
5279;SDS011;2663;53.588;10.010;2023-10-08T06:34:17;3.00;;;1.50;;
5279;SDS011;2663;53.588;10.010;2023-10-08T06:36:48;31.03;;;2.33;;
5279;SDS011;2663;53.588;10.010;2023-10-08T06:39:23;5.87;;;1.77;;
5279;SDS011;2663;53.588;10.010;2023-10-08T06:41:59;9.80;;;1.90;;
5279;SDS011;2663;53.588;10.010;2023-10-08T06:44:27;14.10;;;2.40;;
5279;SDS011;2663;53.588;10.010;2023-10-08T06:46:54;5.17;;;1.53;;
5279;SDS011;2663;53.588;10.010;2023-10-08T06:49:22;5.63;;;1.30;;
5279;SDS011;2663;53.588;10.010;2023-10-08T06:51:52;11.60;;;1.70;;
5279;SDS011;2663;53.588;10.010;2023-10-08T06:54:20;6.70;;;1.73;;
5279;SDS011;2663;53.588;10.010;2023-10-08T06:56:48;7.13;;;2.10;;
5279;SDS011;2663;53.588;10.010;2023-10-08T06:59:19;3.90;;;1.43;;
5279;SDS011;2663;53.588;10.010;2023-10-08T07:01:50;4.80;;;1.70;;
5279;SDS011;2663;53.588;10.010;2023-10-08T07:04:18;8.90;;;2.03;;
5279;SDS011;2663;53.588;10.010;2023-10-08T07:06:46;6.63;;;1.93;;
5279;SDS011;2663;53.588;10.010;2023-10-08T07:09:13;4.80;;;1.50;;
5279;SDS011;2663;53.588;10.010;2023-10-08T07:12:09;8.77;;;1.67;;
5279;SDS011;2663;53.588;10.010;2023-10-08T07:14:40;5.07;;;2.33;;
5279;SDS011;2663;53.588;10.010;2023-10-08T07:17:08;11.30;;;2.33;;
5279;SDS011;2663;53.588;10.010;2023-10-08T07:19:38;6.30;;;1.33;;
5279;SDS011;2663;53.588;10.010;2023-10-08T07:22:09;6.50;;;1.60;;
5279;SDS011;2663;53.588;10.010;2023-10-08T07:24:49;2.60;;;1.63;;
5279;SDS011;2663;53.588;10.010;2023-10-08T07:27:18;5.93;;;1.60;;
5279;SDS011;2663;53.588;10.010;2023-10-08T07:29:48;4.50;;;1.20;;
5279;SDS011;2663;53.588;10.010;2023-10-08T07:32:16;6.30;;;1.67;;
5279;SDS011;2663;53.588;10.010;2023-10-08T07:34:45;11.53;;;1.93;;
5279;SDS011;2663;53.588;10.010;2023-10-08T07:37:11;8.47;;;1.53;;
5279;SDS011;2663;53.588;10.010;2023-10-08T07:39:40;2.60;;;1.47;;
5279;SDS011;2663;53.588;10.010;2023-10-08T07:42:13;10.17;;;1.77;;
5279;SDS011;2663;53.588;10.010;2023-10-08T07:44:40;6.43;;;1.97;;
5279;SDS011;2663;53.588;10.010;2023-10-08T07:47:07;3.37;;;1.50;;
5279;SDS011;2663;53.588;10.010;2023-10-08T07:49:39;7.93;;;1.40;;
5279;SDS011;2663;53.588;10.010;2023-10-08T07:52:10;4.80;;;1.33;;
5279;SDS011;2663;53.588;10.010;2023-10-08T07:54:42;28.23;;;1.80;;
5279;SDS011;2663;53.588;10.010;2023-10-08T07:57:09;7.40;;;1.23;;
5279;SDS011;2663;53.588;10.010;2023-10-08T07:59:45;6.83;;;1.47;;
5279;SDS011;2663;53.588;10.010;2023-10-08T08:02:14;2.13;;;1.20;;
5279;SDS011;2663;53.588;10.010;2023-10-08T08:04:44;7.83;;;1.47;;
5279;SDS011;2663;53.588;10.010;2023-10-08T08:07:13;23.97;;;2.33;;
5279;SDS011;2663;53.588;10.010;2023-10-08T08:09:43;3.13;;;1.30;;
5279;SDS011;2663;53.588;10.010;2023-10-08T08:12:30;9.67;;;1.70;;
5279;SDS011;2663;53.588;10.010;2023-10-08T08:15:01;10.80;;;1.70;;
5279;SDS011;2663;53.588;10.010;2023-10-08T08:17:41;16.30;;;1.77;;
5279;SDS011;2663;53.588;10.010;2023-10-08T08:20:09;5.83;;;1.60;;
5279;SDS011;2663;53.588;10.010;2023-10-08T08:22:45;20.80;;;1.70;;
5279;SDS011;2663;53.588;10.010;2023-10-08T08:25:21;11.87;;;3.77;;
5279;SDS011;2663;53.588;10.010;2023-10-08T08:28:00;8.60;;;1.40;;
5279;SDS011;2663;53.588;10.010;2023-10-08T08:30:27;10.80;;;1.73;;
5279;SDS011;2663;53.588;10.010;2023-10-08T08:32:54;5.93;;;1.30;;
5279;SDS011;2663;53.588;10.010;2023-10-08T08:35:23;8.60;;;2.80;;
5279;SDS011;2663;53.588;10.010;2023-10-08T08:37:50;11.33;;;1.30;;
5279;SDS011;2663;53.588;10.010;2023-10-08T08:40:18;5.70;;;1.13;;
5279;SDS011;2663;53.588;10.010;2023-10-08T08:42:49;5.33;;;1.90;;
5279;SDS011;2663;53.588;10.010;2023-10-08T08:45:19;2.87;;;1.50;;
5279;SDS011;2663;53.588;10.010;2023-10-08T08:47:51;8.83;;;2.33;;
5279;SDS011;2663;53.588;10.010;2023-10-08T08:50:18;6.67;;;1.73;;
5279;SDS011;2663;53.588;10.010;2023-10-08T08:52:45;3.17;;;1.20;;
5279;SDS011;2663;53.588;10.010;2023-10-08T08:55:12;3.40;;;1.47;;
5279;SDS011;2663;53.588;10.010;2023-10-08T08:57:48;6.03;;;1.67;;
5279;SDS011;2663;53.588;10.010;2023-10-08T09:00:17;9.33;;;3.93;;
5279;SDS011;2663;53.588;10.010;2023-10-08T09:02:45;7.80;;;1.97;;
5279;SDS011;2663;53.588;10.010;2023-10-08T09:05:15;13.07;;;2.00;;
5279;SDS011;2663;53.588;10.010;2023-10-08T09:08:02;13.20;;;5.60;;
5279;SDS011;2663;53.588;10.010;2023-10-08T09:10:35;4.63;;;1.73;;
5279;SDS011;2663;53.588;10.010;2023-10-08T09:13:04;3.60;;;1.40;;
5279;SDS011;2663;53.588;10.010;2023-10-08T09:15:33;4.70;;;1.70;;
5279;SDS011;2663;53.588;10.010;2023-10-08T09:18:01;7.57;;;1.80;;
5279;SDS011;2663;53.588;10.010;2023-10-08T09:20:36;4.43;;;1.43;;
5279;SDS011;2663;53.588;10.010;2023-10-08T09:23:11;4.53;;;1.30;;
5279;SDS011;2663;53.588;10.010;2023-10-08T09:25:42;8.87;;;1.40;;
5279;SDS011;2663;53.588;10.010;2023-10-08T09:28:10;4.20;;;1.37;;
5279;SDS011;2663;53.588;10.010;2023-10-08T09:30:40;4.10;;;1.00;;
5279;SDS011;2663;53.588;10.010;2023-10-08T09:33:10;5.03;;;1.70;;
5279;SDS011;2663;53.588;10.010;2023-10-08T09:35:42;2.20;;;1.10;;
5279;SDS011;2663;53.588;10.010;2023-10-08T09:38:11;12.53;;;3.80;;
5279;SDS011;2663;53.588;10.010;2023-10-08T09:40:41;10.30;;;1.20;;
5279;SDS011;2663;53.588;10.010;2023-10-08T09:43:10;8.37;;;2.80;;
5279;SDS011;2663;53.588;10.010;2023-10-08T09:45:41;9.90;;;1.63;;
5279;SDS011;2663;53.588;10.010;2023-10-08T09:48:12;5.00;;;1.00;;
5279;SDS011;2663;53.588;10.010;2023-10-08T09:50:42;8.10;;;1.77;;
5279;SDS011;2663;53.588;10.010;2023-10-08T09:53:11;5.70;;;1.00;;
5279;SDS011;2663;53.588;10.010;2023-10-08T09:55:49;3.43;;;1.20;;
5279;SDS011;2663;53.588;10.010;2023-10-08T09:58:24;2.40;;;1.00;;
5279;SDS011;2663;53.588;10.010;2023-10-08T10:00:54;6.63;;;1.00;;
5279;SDS011;2663;53.588;10.010;2023-10-08T10:03:24;3.83;;;1.17;;
5279;SDS011;2663;53.588;10.010;2023-10-08T10:05:52;2.67;;;1.03;;
5279;SDS011;2663;53.588;10.010;2023-10-08T10:08:25;5.93;;;1.50;;
5279;SDS011;2663;53.588;10.010;2023-10-08T10:10:58;8.80;;;1.80;;
5279;SDS011;2663;53.588;10.010;2023-10-08T10:13:29;5.27;;;1.13;;
5279;SDS011;2663;53.588;10.010;2023-10-08T10:16:00;4.50;;;1.13;;
5279;SDS011;2663;53.588;10.010;2023-10-08T10:18:28;6.60;;;1.40;;
5279;SDS011;2663;53.588;10.010;2023-10-08T10:20:59;3.77;;;1.73;;
5279;SDS011;2663;53.588;10.010;2023-10-08T10:23:39;3.67;;;1.20;;
5279;SDS011;2663;53.588;10.010;2023-10-08T10:31:49;1.97;;;0.87;;
5279;SDS011;2663;53.588;10.010;2023-10-08T10:34:21;2.40;;;1.20;;
5279;SDS011;2663;53.588;10.010;2023-10-08T10:36:57;8.57;;;1.80;;
5279;SDS011;2663;53.588;10.010;2023-10-08T10:39:55;8.90;;;1.53;;
5279;SDS011;2663;53.588;10.010;2023-10-08T10:42:24;4.93;;;1.50;;
5279;SDS011;2663;53.588;10.010;2023-10-08T10:44:52;9.13;;;1.43;;
5279;SDS011;2663;53.588;10.010;2023-10-08T10:47:21;3.67;;;1.50;;
5279;SDS011;2663;53.588;10.010;2023-10-08T10:49:49;2.53;;;1.33;;
5279;SDS011;2663;53.588;10.010;2023-10-08T10:52:17;2.40;;;1.20;;
5279;SDS011;2663;53.588;10.010;2023-10-08T10:55:07;6.27;;;1.60;;
5279;SDS011;2663;53.588;10.010;2023-10-08T10:57:43;4.60;;;1.97;;
5279;SDS011;2663;53.588;10.010;2023-10-08T11:00:20;6.53;;;2.90;;
5279;SDS011;2663;53.588;10.010;2023-10-08T11:03:01;29.87;;;9.37;;
5279;SDS011;2663;53.588;10.010;2023-10-08T11:05:31;7.67;;;2.43;;
5279;SDS011;2663;53.588;10.010;2023-10-08T11:08:04;4.77;;;1.77;;
5279;SDS011;2663;53.588;10.010;2023-10-08T11:10:34;1.77;;;0.90;;
5279;SDS011;2663;53.588;10.010;2023-10-08T11:13:06;3.70;;;1.10;;
5279;SDS011;2663;53.588;10.010;2023-10-08T11:15:44;2.50;;;1.10;;
5279;SDS011;2663;53.588;10.010;2023-10-08T11:18:16;12.63;;;1.40;;
5279;SDS011;2663;53.588;10.010;2023-10-08T11:20:45;1.93;;;1.27;;
5279;SDS011;2663;53.588;10.010;2023-10-08T11:23:37;9.17;;;1.40;;
5279;SDS011;2663;53.588;10.010;2023-10-08T11:26:07;2.57;;;1.00;;
5279;SDS011;2663;53.588;10.010;2023-10-08T11:28:35;2.37;;;0.77;;
5279;SDS011;2663;53.588;10.010;2023-10-08T11:31:10;4.07;;;1.20;;
5279;SDS011;2663;53.588;10.010;2023-10-08T11:33:41;6.77;;;1.33;;
5279;SDS011;2663;53.588;10.010;2023-10-08T11:36:20;7.63;;;1.30;;
5279;SDS011;2663;53.588;10.010;2023-10-08T11:39:11;1.73;;;1.20;;
5279;SDS011;2663;53.588;10.010;2023-10-08T11:41:57;1.37;;;1.03;;
5279;SDS011;2663;53.588;10.010;2023-10-08T11:44:30;1.10;;;1.00;;
5279;SDS011;2663;53.588;10.010;2023-10-08T11:46:57;6.10;;;1.30;;
5279;SDS011;2663;53.588;10.010;2023-10-08T11:49:40;1.97;;;1.20;;
5279;SDS011;2663;53.588;10.010;2023-10-08T11:52:16;2.20;;;1.17;;
5279;SDS011;2663;53.588;10.010;2023-10-08T11:54:47;3.23;;;1.00;;
5279;SDS011;2663;53.588;10.010;2023-10-08T11:57:18;2.10;;;1.00;;
5279;SDS011;2663;53.588;10.010;2023-10-08T11:59:48;10.23;;;3.57;;
5279;SDS011;2663;53.588;10.010;2023-10-08T12:02:19;3.60;;;1.90;;
5279;SDS011;2663;53.588;10.010;2023-10-08T12:04:47;3.73;;;1.80;;
5279;SDS011;2663;53.588;10.010;2023-10-08T12:07:14;4.37;;;1.67;;
5279;SDS011;2663;53.588;10.010;2023-10-08T12:09:44;4.63;;;2.17;;
5279;SDS011;2663;53.588;10.010;2023-10-08T12:12:15;4.70;;;1.70;;
5279;SDS011;2663;53.588;10.010;2023-10-08T12:14:42;2.80;;;1.57;;
5279;SDS011;2663;53.588;10.010;2023-10-08T12:17:13;7.10;;;2.47;;
5279;SDS011;2663;53.588;10.010;2023-10-08T12:19:43;9.90;;;2.67;;
5279;SDS011;2663;53.588;10.010;2023-10-08T12:22:11;8.30;;;2.27;;
5279;SDS011;2663;53.588;10.010;2023-10-08T12:24:44;4.43;;;1.90;;
5279;SDS011;2663;53.588;10.010;2023-10-08T12:27:10;11.43;;;2.13;;
5279;SDS011;2663;53.588;10.010;2023-10-08T12:29:38;5.10;;;1.80;;
5279;SDS011;2663;53.588;10.010;2023-10-08T12:32:05;5.63;;;2.63;;
5279;SDS011;2663;53.588;10.010;2023-10-08T12:34:43;9.60;;;2.30;;
5279;SDS011;2663;53.588;10.010;2023-10-08T12:37:10;4.00;;;1.67;;
5279;SDS011;2663;53.588;10.010;2023-10-08T12:39:41;9.53;;;5.40;;
5279;SDS011;2663;53.588;10.010;2023-10-08T12:42:23;8.67;;;4.93;;
5279;SDS011;2663;53.588;10.010;2023-10-08T12:44:51;7.50;;;3.03;;
5279;SDS011;2663;53.588;10.010;2023-10-08T12:47:18;4.47;;;2.70;;
5279;SDS011;2663;53.588;10.010;2023-10-08T12:49:45;2.50;;;1.33;;
5279;SDS011;2663;53.588;10.010;2023-10-08T12:52:13;1.43;;;1.30;;
5279;SDS011;2663;53.588;10.010;2023-10-08T12:54:40;1.63;;;1.30;;
5279;SDS011;2663;53.588;10.010;2023-10-08T12:57:11;5.70;;;1.27;;
5279;SDS011;2663;53.588;10.010;2023-10-08T12:59:42;2.10;;;1.20;;
5279;SDS011;2663;53.588;10.010;2023-10-08T13:02:14;5.70;;;1.20;;
5279;SDS011;2663;53.588;10.010;2023-10-08T13:04:42;11.93;;;1.23;;
5279;SDS011;2663;53.588;10.010;2023-10-08T13:07:11;2.80;;;0.90;;
5279;SDS011;2663;53.588;10.010;2023-10-08T13:09:40;4.00;;;1.20;;
5279;SDS011;2663;53.588;10.010;2023-10-08T13:12:09;3.13;;;1.10;;
5279;SDS011;2663;53.588;10.010;2023-10-08T13:14:36;2.47;;;1.13;;
5279;SDS011;2663;53.588;10.010;2023-10-08T13:17:03;4.00;;;1.43;;
5279;SDS011;2663;53.588;10.010;2023-10-08T13:19:30;3.90;;;1.33;;
5279;SDS011;2663;53.588;10.010;2023-10-08T13:22:00;1.20;;;1.03;;
5279;SDS011;2663;53.588;10.010;2023-10-08T13:24:27;4.10;;;1.40;;
5279;SDS011;2663;53.588;10.010;2023-10-08T13:26:55;5.70;;;1.53;;
5279;SDS011;2663;53.588;10.010;2023-10-08T13:29:24;2.60;;;1.73;;
5279;SDS011;2663;53.588;10.010;2023-10-08T13:31:59;2.80;;;1.53;;
5279;SDS011;2663;53.588;10.010;2023-10-08T13:34:26;2.63;;;1.23;;
5279;SDS011;2663;53.588;10.010;2023-10-08T13:36:54;1.60;;;1.17;;
5279;SDS011;2663;53.588;10.010;2023-10-08T13:39:22;8.73;;;1.60;;
5279;SDS011;2663;53.588;10.010;2023-10-08T13:41:49;3.80;;;1.27;;
5279;SDS011;2663;53.588;10.010;2023-10-08T13:44:18;9.87;;;1.30;;
5279;SDS011;2663;53.588;10.010;2023-10-08T13:46:55;2.60;;;1.50;;
5279;SDS011;2663;53.588;10.010;2023-10-08T13:49:24;3.90;;;1.30;;
5279;SDS011;2663;53.588;10.010;2023-10-08T13:51:52;3.13;;;1.40;;
5279;SDS011;2663;53.588;10.010;2023-10-08T13:54:23;2.80;;;1.20;;
5279;SDS011;2663;53.588;10.010;2023-10-08T13:56:55;3.17;;;1.60;;
5279;SDS011;2663;53.588;10.010;2023-10-08T13:59:25;5.23;;;1.67;;
5279;SDS011;2663;53.588;10.010;2023-10-08T14:01:51;2.43;;;1.40;;
5279;SDS011;2663;53.588;10.010;2023-10-08T14:04:19;5.37;;;1.60;;
5279;SDS011;2663;53.588;10.010;2023-10-08T14:06:47;2.37;;;1.50;;
5279;SDS011;2663;53.588;10.010;2023-10-08T14:09:22;9.30;;;1.97;;
5279;SDS011;2663;53.588;10.010;2023-10-08T14:11:58;6.97;;;1.20;;
5279;SDS011;2663;53.588;10.010;2023-10-08T14:14:26;2.93;;;1.60;;
5279;SDS011;2663;53.588;10.010;2023-10-08T14:16:57;8.37;;;2.70;;
5279;SDS011;2663;53.588;10.010;2023-10-08T14:19:37;6.33;;;1.77;;
5279;SDS011;2663;53.588;10.010;2023-10-08T14:22:17;6.00;;;1.90;;
5279;SDS011;2663;53.588;10.010;2023-10-08T14:24:48;6.20;;;1.50;;
5279;SDS011;2663;53.588;10.010;2023-10-08T14:27:25;1.67;;;1.40;;
5279;SDS011;2663;53.588;10.010;2023-10-08T14:29:58;1.53;;;1.13;;
5279;SDS011;2663;53.588;10.010;2023-10-08T14:32:31;3.90;;;1.40;;
5279;SDS011;2663;53.588;10.010;2023-10-08T14:34:59;2.07;;;1.17;;
5279;SDS011;2663;53.588;10.010;2023-10-08T14:37:44;12.23;;;1.90;;
5279;SDS011;2663;53.588;10.010;2023-10-08T14:40:30;2.40;;;1.13;;
5279;SDS011;2663;53.588;10.010;2023-10-08T14:43:15;2.93;;;1.63;;
5279;SDS011;2663;53.588;10.010;2023-10-08T14:45:46;3.10;;;2.20;;
5279;SDS011;2663;53.588;10.010;2023-10-08T14:48:13;3.37;;;1.87;;
5279;SDS011;2663;53.588;10.010;2023-10-08T14:50:40;6.83;;;2.00;;
5279;SDS011;2663;53.588;10.010;2023-10-08T14:53:09;6.20;;;1.63;;
5279;SDS011;2663;53.588;10.010;2023-10-08T14:55:35;3.80;;;1.80;;
5279;SDS011;2663;53.588;10.010;2023-10-08T14:58:07;6.97;;;2.90;;
5279;SDS011;2663;53.588;10.010;2023-10-08T15:00:35;7.00;;;1.97;;
5279;SDS011;2663;53.588;10.010;2023-10-08T15:03:04;5.23;;;1.50;;
5279;SDS011;2663;53.588;10.010;2023-10-08T15:05:31;9.90;;;2.40;;
5279;SDS011;2663;53.588;10.010;2023-10-08T15:07:58;6.20;;;1.63;;
5279;SDS011;2663;53.588;10.010;2023-10-08T15:10:25;2.40;;;1.50;;
5279;SDS011;2663;53.588;10.010;2023-10-08T15:12:52;4.47;;;1.10;;
5279;SDS011;2663;53.588;10.010;2023-10-08T15:15:20;4.37;;;1.40;;
5279;SDS011;2663;53.588;10.010;2023-10-08T15:17:51;4.00;;;1.53;;
5279;SDS011;2663;53.588;10.010;2023-10-08T15:20:18;2.20;;;1.33;;
5279;SDS011;2663;53.588;10.010;2023-10-08T15:22:47;3.27;;;1.70;;
5279;SDS011;2663;53.588;10.010;2023-10-08T15:25:17;6.80;;;1.60;;
5279;SDS011;2663;53.588;10.010;2023-10-08T15:27:44;11.30;;;1.77;;
5279;SDS011;2663;53.588;10.010;2023-10-08T15:30:14;4.13;;;1.33;;
5279;SDS011;2663;53.588;10.010;2023-10-08T15:32:43;8.47;;;2.30;;
5279;SDS011;2663;53.588;10.010;2023-10-08T15:35:11;2.40;;;1.43;;